createdAt,value
2019-02-26T00:00:02.800Z,4.93
2019-02-26T00:03:08.219Z,4.88
2019-02-26T00:06:12.993Z,4.88
2019-02-26T00:09:20.475Z,4.83
2019-02-26T00:12:24.185Z,4.83
2019-02-26T00:15:33.285Z,4.78
2019-02-26T00:18:36.774Z,4.73
2019-02-26T00:21:43.017Z,4.70
2019-02-26T00:24:47.819Z,4.66
2019-02-26T00:27:54.623Z,4.62
2019-02-26T00:30:59.947Z,4.63
2019-02-26T00:34:06.016Z,4.58
2019-02-26T00:37:11.886Z,4.59
2019-02-26T00:40:19.653Z,4.67
2019-02-26T00:43:25.323Z,4.65
2019-02-26T00:46:32.580Z,4.70
2019-02-26T00:49:39.112Z,4.73
2019-02-26T00:52:43.434Z,4.83
2019-02-26T00:55:47.838Z,4.79
2019-02-26T00:58:52.220Z,4.81
2019-02-26T01:01:57.098Z,4.83
2019-02-26T01:05:06.297Z,4.88
2019-02-26T01:08:15.741Z,4.88
2019-02-26T01:11:21.558Z,4.93
2019-02-26T01:14:26.609Z,4.91
2019-02-26T01:17:33.259Z,4.95
2019-02-26T01:20:37.315Z,4.91
2019-02-26T01:23:41.649Z,4.94
2019-02-26T01:26:46.077Z,4.93
2019-02-26T01:29:51.808Z,4.86
2019-02-26T01:32:58.223Z,4.84
2019-02-26T01:36:02.781Z,4.86
2019-02-26T01:39:11.247Z,4.89
2019-02-26T01:42:17.381Z,4.91
2019-02-26T01:45:22.403Z,4.93
2019-02-26T01:48:27.141Z,4.97
2019-02-26T01:51:32.797Z,5.00
2019-02-26T01:54:39.501Z,5.03
2019-02-26T01:57:43.775Z,5.00
2019-02-26T02:00:48.206Z,5.02
2019-02-26T02:03:55.847Z,5.10
2019-02-26T02:07:00.959Z,5.11
2019-02-26T02:10:05.675Z,5.11
2019-02-26T02:13:11.428Z,4.99
2019-02-26T02:16:17.410Z,5.21
2019-02-26T02:19:23.405Z,5.06
2019-02-26T02:22:29.514Z,4.98
2019-02-26T02:25:36.173Z,4.91
2019-02-26T02:28:40.127Z,4.88
2019-02-26T02:31:47.668Z,4.88
2019-02-26T02:34:52.050Z,4.84
2019-02-26T02:37:59.575Z,4.82
2019-02-26T02:41:02.821Z,4.79
2019-02-26T02:44:07.230Z,4.76
2019-02-26T02:47:11.634Z,4.82
2019-02-26T02:50:18.214Z,4.86
2019-02-26T02:53:23.922Z,4.91
2019-02-26T02:56:28.240Z,4.97
2019-02-26T02:59:34.039Z,4.99
2019-02-26T03:02:42.869Z,5.00
2019-02-26T03:05:45.893Z,5.05
2019-02-26T03:08:51.043Z,5.07
2019-02-26T03:11:56.403Z,5.08
2019-02-26T03:15:02.398Z,5.06
2019-02-26T03:18:09.404Z,5.07
2019-02-26T03:21:13.109Z,5.08
2019-02-26T03:24:17.731Z,5.03
2019-02-26T03:27:22.146Z,4.98
2019-02-26T03:30:32.657Z,4.96
2019-02-26T03:33:32.561Z,4.93
2019-02-26T03:36:38.284Z,4.90
2019-02-26T03:39:43.090Z,4.85
2019-02-26T03:42:47.722Z,4.82
2019-02-26T03:45:52.168Z,4.73
2019-02-26T03:48:56.477Z,4.72
2019-02-26T03:52:00.793Z,4.69
2019-02-26T03:55:06.839Z,4.72
2019-02-26T03:58:12.117Z,4.75
2019-02-26T04:01:18.761Z,4.74
2019-02-26T04:04:22.997Z,4.75
2019-02-26T04:07:30.281Z,4.76
2019-02-26T04:10:34.678Z,4.77
2019-02-26T04:13:41.050Z,4.74
2019-02-26T04:16:45.161Z,4.76
2019-02-26T04:19:49.498Z,4.83
2019-02-26T04:22:56.747Z,4.77
2019-02-26T04:26:59.524Z,4.71
2019-02-26T04:30:33.891Z,4.72
2019-02-26T04:34:23.330Z,4.74
2019-02-26T04:38:07.565Z,4.72
2019-02-26T04:41:33.019Z,4.74
2019-02-26T04:45:22.193Z,4.83
2019-02-26T04:48:32.486Z,4.80
2019-02-26T04:51:39.877Z,4.80
2019-02-26T04:54:44.241Z,4.77
2019-02-26T04:57:53.963Z,4.79
2019-02-26T05:01:00.699Z,4.77
2019-02-26T05:04:06.496Z,4.77
2019-02-26T05:07:14.052Z,4.74
2019-02-26T05:10:20.501Z,4.72
2019-02-26T05:13:27.014Z,4.76
2019-02-26T05:16:34.199Z,4.79
2019-02-26T05:19:39.564Z,4.72
2019-02-26T05:22:43.559Z,4.73
2019-02-26T05:25:50.926Z,4.71
2019-02-26T05:28:55.291Z,4.82
2019-02-26T05:32:01.086Z,4.86
2019-02-26T05:35:06.021Z,4.56
2019-02-26T05:38:10.331Z,4.42
2019-02-26T05:41:14.608Z,4.38
2019-02-26T05:44:21.754Z,4.33
2019-02-26T05:47:26.701Z,4.26
2019-02-26T05:50:34.626Z,4.17
2019-02-26T05:53:37.182Z,4.14
2019-02-26T05:56:43.582Z,4.14
2019-02-26T05:59:47.669Z,4.10
2019-02-26T06:02:52.110Z,4.05
2019-02-26T06:05:58.250Z,4.08
2019-02-26T06:09:05.045Z,4.14
2019-02-26T06:12:08.564Z,4.11
2019-02-26T06:15:13.093Z,4.10
2019-02-26T06:18:17.428Z,4.13
2019-02-26T06:21:23.499Z,4.16
2019-02-26T06:24:29.803Z,4.14
2019-02-26T06:27:34.974Z,4.14
2019-02-26T06:30:39.276Z,4.14
2019-02-26T06:33:45.478Z,4.12
2019-02-26T06:36:51.580Z,4.09
2019-02-26T06:39:59.369Z,4.21
2019-02-26T06:43:01.700Z,4.21
2019-02-26T06:46:09.266Z,4.19
2019-02-26T06:49:12.033Z,4.18
2019-02-26T06:52:17.999Z,4.20
2019-02-26T06:55:22.390Z,4.25
2019-02-26T06:58:28.309Z,4.37
2019-02-26T07:01:35.256Z,4.41
2019-02-26T07:04:42.829Z,4.47
2019-02-26T07:07:47.141Z,4.50
2019-02-26T07:10:51.441Z,4.54
2019-02-26T07:13:55.741Z,4.57
2019-02-26T07:17:03.127Z,4.61
2019-02-26T07:20:07.873Z,4.66
2019-02-26T07:23:12.923Z,4.74
2019-02-26T07:26:18.887Z,4.77
2019-02-26T07:29:24.272Z,4.83
2019-02-26T07:32:28.594Z,4.85
2019-02-26T07:35:35.007Z,4.88
2019-02-26T07:38:41.560Z,4.89
2019-02-26T07:41:49.327Z,4.95
2019-02-26T07:44:53.706Z,4.99
2019-02-26T07:47:59.099Z,5.11
2019-02-26T07:51:04.029Z,5.17
2019-02-26T07:54:08.327Z,5.25
2019-02-26T07:57:12.607Z,5.35
2019-02-26T08:00:18.810Z,5.47
2019-02-26T08:03:26.188Z,5.61
2019-02-26T08:06:31.517Z,5.79
2019-02-26T08:09:35.404Z,5.93
2019-02-26T08:12:40.905Z,6.18
2019-02-26T08:15:45.727Z,6.12
2019-02-26T08:18:51.683Z,6.06
2019-02-26T08:21:57.108Z,6.01
2019-02-26T08:25:01.528Z,5.96
2019-02-26T08:28:05.854Z,5.97
2019-02-26T08:31:13.313Z,6.07
2019-02-26T08:34:16.197Z,6.18
2019-02-26T08:37:20.504Z,6.28
2019-02-26T08:40:24.810Z,6.42
2019-02-26T08:43:30.504Z,6.56
2019-02-26T08:46:34.786Z,6.64
2019-02-26T08:49:40.740Z,6.65
2019-02-26T08:52:49.413Z,6.73
2019-02-26T08:55:53.512Z,6.81
2019-02-26T08:58:58.480Z,6.96
2019-02-26T09:02:03.233Z,7.09
2019-02-26T09:05:09.862Z,7.09
2019-02-26T09:08:15.936Z,7.18
2019-02-26T09:11:20.470Z,7.34
2019-02-26T09:14:24.754Z,7.46
2019-02-26T09:17:30.433Z,7.60
2019-02-26T09:20:35.086Z,7.75
2019-02-26T09:23:39.382Z,7.87
2019-02-26T09:26:43.865Z,8.03
2019-02-26T09:29:51.465Z,8.03
2019-02-26T09:32:56.005Z,8.06
2019-02-26T09:36:00.324Z,8.17
2019-02-26T09:39:08.203Z,8.27
2019-02-26T09:42:12.231Z,8.37
2019-02-26T09:45:20.355Z,8.51
2019-02-26T09:48:23.850Z,8.50
2019-02-26T09:51:28.815Z,8.61
2019-02-26T09:54:37.773Z,8.66
2019-02-26T09:57:40.326Z,8.66
2019-02-26T10:00:48.007Z,8.65
2019-02-26T10:03:50.795Z,8.79
2019-02-26T10:06:55.107Z,8.93
2019-02-26T10:10:00.502Z,9.03
2019-02-26T10:13:05.597Z,9.16
2019-02-26T10:16:09.892Z,9.26
2019-02-26T10:19:14.885Z,9.43
2019-02-26T10:22:20.445Z,9.49
2019-02-26T10:25:26.413Z,9.50
2019-02-26T10:28:30.791Z,9.52
2019-02-26T10:31:40.415Z,9.64
2019-02-26T10:34:46.323Z,9.81
2019-02-26T10:37:52.489Z,9.87
2019-02-26T10:40:59.279Z,9.91
2019-02-26T10:44:03.063Z,10.02
2019-02-26T10:47:08.718Z,10.13
2019-02-26T10:50:18.875Z,10.28
2019-02-26T10:53:22.774Z,10.36
2019-02-26T10:56:28.690Z,10.49
2019-02-26T10:59:33.401Z,10.63
2019-02-26T11:02:37.728Z,10.83
2019-02-26T11:05:42.620Z,11.08
2019-02-26T11:08:50.426Z,11.06
2019-02-26T11:11:54.876Z,11.20
2019-02-26T11:15:01.703Z,11.24
2019-02-26T11:18:08.088Z,11.23
2019-02-26T11:21:12.240Z,11.34
2019-02-26T11:24:17.007Z,11.51
2019-02-26T11:27:21.431Z,11.68
2019-02-26T11:30:28.736Z,11.60
2019-02-26T11:33:31.846Z,11.69
2019-02-26T11:36:38.384Z,11.78
2019-02-26T11:39:42.204Z,11.85
2019-02-26T11:42:47.275Z,12.07
2019-02-26T11:45:52.526Z,12.19
2019-02-26T11:48:57.436Z,12.22
2019-02-26T11:52:04.509Z,12.23
2019-02-26T11:55:10.890Z,12.31
2019-02-26T11:58:15.885Z,12.48
2019-02-26T12:01:20.692Z,12.54
2019-02-26T12:04:25.095Z,12.56
2019-02-26T12:07:29.757Z,12.55
2019-02-26T12:10:37.832Z,12.64
2019-02-26T12:13:47.233Z,12.71
2019-02-26T12:16:52.306Z,12.71
2019-02-26T12:20:03.528Z,12.76
2019-02-26T12:23:16.136Z,12.97
2019-02-26T12:26:30.202Z,12.97
2019-02-26T12:29:43.659Z,13.09
2019-02-26T12:32:53.092Z,13.16
2019-02-26T12:35:59.519Z,13.11
2019-02-26T12:39:03.102Z,13.15
2019-02-26T12:42:10.443Z,13.22
2019-02-26T12:45:14.169Z,13.24
2019-02-26T12:48:21.953Z,13.33
2019-02-26T12:51:28.090Z,13.35
2019-02-26T12:54:36.442Z,13.37
2019-02-26T12:57:39.028Z,13.35
2019-02-26T13:00:43.355Z,13.37
2019-02-26T13:03:54.041Z,13.51
2019-02-26T13:06:53.800Z,13.51
2019-02-26T13:10:02.750Z,13.50
2019-02-26T13:13:07.647Z,13.41
2019-02-26T13:16:10.237Z,13.44
2019-02-26T13:19:18.317Z,13.46
2019-02-26T13:22:20.555Z,13.65
2019-02-26T13:25:26.818Z,13.60
2019-02-26T13:28:30.902Z,13.65
2019-02-26T13:31:41.743Z,13.63
2019-02-26T13:34:41.249Z,13.67
2019-02-26T13:37:46.315Z,13.54
2019-02-26T13:40:50.609Z,13.55
2019-02-26T13:43:54.910Z,13.55
2019-02-26T13:46:59.234Z,13.58
2019-02-26T13:50:03.541Z,13.60
2019-02-26T13:53:11.082Z,13.55
2019-02-26T13:56:15.388Z,13.50
2019-02-26T13:59:19.772Z,13.53
2019-02-26T14:02:24.085Z,13.64
2019-02-26T14:05:28.389Z,13.66
2019-02-26T14:08:32.706Z,13.63
2019-02-26T14:11:36.997Z,13.62
2019-02-26T14:14:41.307Z,13.61
2019-02-26T14:17:45.617Z,13.48
2019-02-26T14:20:50.022Z,13.41
2019-02-26T14:23:54.329Z,13.46
2019-02-26T14:26:58.635Z,13.38
2019-02-26T14:30:02.939Z,13.37
2019-02-26T14:33:07.259Z,13.29
2019-02-26T14:36:11.587Z,13.35
2019-02-26T14:39:15.875Z,13.29
2019-02-26T14:42:21.619Z,13.28
2019-02-26T14:45:26.154Z,13.29
2019-02-26T14:48:30.473Z,13.26
2019-02-26T14:51:34.946Z,13.23
2019-02-26T14:54:39.267Z,13.22
2019-02-26T14:57:43.688Z,13.27
2019-02-26T15:00:57.131Z,13.24
2019-02-26T15:03:55.146Z,13.28
2019-02-26T15:06:59.608Z,13.28
2019-02-26T15:10:04.328Z,13.36
2019-02-26T15:13:08.609Z,13.22
2019-02-26T15:16:12.926Z,13.15
2019-02-26T15:19:19.747Z,13.15
2019-02-26T15:22:24.325Z,13.14
2019-02-26T15:25:28.624Z,13.11
2019-02-26T15:28:32.919Z,13.10
2019-02-26T15:31:37.209Z,12.98
2019-02-26T15:34:41.615Z,12.93
2019-02-26T15:37:46.035Z,12.87
2019-02-26T15:40:51.157Z,12.83
2019-02-26T15:43:57.075Z,12.72
2019-02-26T15:47:02.297Z,12.60
2019-02-26T15:50:08.984Z,12.49
2019-02-26T15:53:13.957Z,12.44
2019-02-26T15:56:21.232Z,12.40
2019-02-26T15:59:25.523Z,12.42
2019-02-26T16:02:32.865Z,12.39
2019-02-26T16:05:37.284Z,12.33
2019-02-26T16:08:43.378Z,12.24
2019-02-26T16:11:48.410Z,12.12
2019-02-26T16:14:52.703Z,12.00
2019-02-26T16:17:58.496Z,11.91
2019-02-26T16:21:03.374Z,11.80
2019-02-26T16:24:10.793Z,11.69
2019-02-26T16:27:15.110Z,11.61
2019-02-26T16:30:20.732Z,11.52
2019-02-26T16:33:25.055Z,11.41
2019-02-26T16:36:31.583Z,11.32
2019-02-26T16:39:35.442Z,11.23
2019-02-26T16:42:39.788Z,11.14
2019-02-26T16:45:44.082Z,11.02
2019-02-26T16:48:48.404Z,10.85
2019-02-26T16:51:54.961Z,10.72
2019-02-26T16:54:59.120Z,10.59
2019-02-26T16:58:03.631Z,10.50
2019-02-26T17:01:08.553Z,10.40
2019-02-26T17:04:12.985Z,10.26
2019-02-26T17:07:17.532Z,10.12
2019-02-26T17:10:21.853Z,9.95
2019-02-26T17:13:26.244Z,9.86
2019-02-26T17:16:31.866Z,9.75
2019-02-26T17:19:39.355Z,9.65
2019-02-26T17:22:44.992Z,9.56
2019-02-26T17:25:49.449Z,9.40
2019-02-26T17:28:54.063Z,9.29
2019-02-26T17:32:04.041Z,9.18
2019-02-26T17:35:06.179Z,9.12
2019-02-26T17:38:10.655Z,9.06
2019-02-26T17:41:14.986Z,9.02
2019-02-26T17:44:19.445Z,8.97
2019-02-26T17:47:23.728Z,8.88
2019-02-26T17:50:30.117Z,8.80
2019-02-26T17:53:39.189Z,8.70
2019-02-26T17:56:43.669Z,8.65
2019-02-26T17:59:47.994Z,8.58
2019-02-26T18:02:52.607Z,8.60
2019-02-26T18:05:56.921Z,8.48
2019-02-26T18:09:04.861Z,8.36
2019-02-26T18:12:09.208Z,8.30
2019-02-26T18:15:16.653Z,8.28
2019-02-26T18:18:20.453Z,8.27
2019-02-26T18:21:24.910Z,8.30
2019-02-26T18:24:29.233Z,8.28
2019-02-26T18:27:33.540Z,8.27
2019-02-26T18:30:37.841Z,8.28
2019-02-26T18:33:42.555Z,8.22
2019-02-26T18:36:48.052Z,8.18
2019-02-26T18:39:54.363Z,8.19
2019-02-26T18:42:58.896Z,8.18
2019-02-26T18:46:03.548Z,8.16
2019-02-26T18:49:08.095Z,8.16
2019-02-26T18:52:12.541Z,8.15
2019-02-26T18:55:20.227Z,8.08
2019-02-26T18:58:24.738Z,8.04
2019-02-26T19:01:30.830Z,8.03
2019-02-26T19:04:37.575Z,8.04
2019-02-26T19:07:41.919Z,8.01
2019-02-26T19:10:46.229Z,7.98
2019-02-26T19:13:50.558Z,7.96
2019-02-26T19:16:55.070Z,7.91
2019-02-26T19:19:59.624Z,7.87
2019-02-26T19:23:04.084Z,7.95
2019-02-26T19:26:08.590Z,7.93
2019-02-26T19:29:15.445Z,7.89
2019-02-26T19:32:23.214Z,7.92
2019-02-26T19:35:28.026Z,7.96
2019-02-26T19:38:35.094Z,7.96
2019-02-26T19:41:40.951Z,7.88
2019-02-26T19:44:46.757Z,7.81
2019-02-26T19:47:55.807Z,7.71
2019-02-26T19:50:58.988Z,7.61
2019-02-26T19:54:04.741Z,7.53
2019-02-26T19:57:09.801Z,7.44
2019-02-26T20:00:19.892Z,7.37
2019-02-26T20:03:24.366Z,7.30
2019-02-26T20:06:29.168Z,7.31
2019-02-26T20:09:38.404Z,7.35
2019-02-26T20:12:41.481Z,7.39
2019-02-26T20:15:46.410Z,7.42
2019-02-26T20:18:52.336Z,7.40
2019-02-26T20:21:57.007Z,7.34
2019-02-26T20:25:01.460Z,7.23
2019-02-26T20:28:06.242Z,7.16
2019-02-26T20:31:10.805Z,7.12
2019-02-26T20:34:15.132Z,7.06
2019-02-26T20:37:24.404Z,7.05
2019-02-26T20:40:28.570Z,7.02
2019-02-26T20:43:36.439Z,6.99
2019-02-26T20:46:39.351Z,6.92
2019-02-26T20:49:46.273Z,6.82
2019-02-26T20:52:50.012Z,6.70
2019-02-26T20:55:57.445Z,6.58
2019-02-26T20:59:02.022Z,6.49
2019-02-26T21:02:06.468Z,6.41
2019-02-26T21:05:11.293Z,6.29
2019-02-26T21:08:15.745Z,6.14
2019-02-26T21:11:23.183Z,6.09
2019-02-26T21:14:26.199Z,6.00
2019-02-26T21:17:30.784Z,5.94
2019-02-26T21:20:35.119Z,5.89
2019-02-26T21:23:39.545Z,5.85
2019-02-26T21:26:43.871Z,5.82
2019-02-26T21:29:48.167Z,5.81
2019-02-26T21:32:52.536Z,5.76
2019-02-26T21:35:57.007Z,5.69
2019-02-26T21:39:03.552Z,5.67
2019-02-26T21:42:07.865Z,5.64
2019-02-26T21:45:16.178Z,5.57
2019-02-26T21:48:22.723Z,5.55
2019-02-26T21:51:27.039Z,5.49
2019-02-26T21:54:34.425Z,5.41
2019-02-26T21:57:38.745Z,5.34
2019-02-26T22:00:43.048Z,5.31
2019-02-26T22:03:48.740Z,5.32
2019-02-26T22:06:53.125Z,5.32
2019-02-26T22:09:57.422Z,5.27
2019-02-26T22:13:01.733Z,5.21
2019-02-26T22:16:06.031Z,5.17
2019-02-26T22:19:11.919Z,5.12
2019-02-26T22:22:16.264Z,5.07
2019-02-26T22:25:20.580Z,4.99
2019-02-26T22:28:25.959Z,4.97
2019-02-26T22:31:30.363Z,4.99
2019-02-26T22:34:34.702Z,4.94
2019-02-26T22:37:41.452Z,4.88
2019-02-26T22:40:47.313Z,4.78
2019-02-26T22:43:51.625Z,4.77
2019-02-26T22:46:55.935Z,4.78
2019-02-26T22:50:00.245Z,4.78
2019-02-26T22:53:04.646Z,4.72
2019-02-26T22:56:09.003Z,4.71
2019-02-26T22:59:13.321Z,4.66
2019-02-26T23:02:17.624Z,4.63
2019-02-26T23:05:25.449Z,4.62
2019-02-26T23:08:27.984Z,4.54
2019-02-26T23:11:32.961Z,4.46
2019-02-26T23:14:38.761Z,4.42
2019-02-26T23:17:45.250Z,4.35
2019-02-26T23:20:49.543Z,4.31
2019-02-26T23:23:54.919Z,4.31
2019-02-26T23:27:00.754Z,4.36
2019-02-26T23:30:05.758Z,4.32
2019-02-26T23:33:15.000Z,4.28
2019-02-26T23:36:16.974Z,4.25
2019-02-26T23:39:22.182Z,4.26
2019-02-26T23:42:27.054Z,4.34
2019-02-26T23:45:31.356Z,4.25
2019-02-26T23:48:35.817Z,4.24
2019-02-26T23:51:40.110Z,4.28
2019-02-26T23:54:44.394Z,4.28
2019-02-26T23:57:48.672Z,4.25
